createdAt,value
2023-02-06T00:01:29.546Z,80.62
2023-02-06T00:03:57.253Z,80.89
2023-02-06T00:06:25.003Z,81.27
2023-02-06T00:08:52.874Z,81.06
2023-02-06T00:11:22.329Z,80.98
2023-02-06T00:13:51.816Z,81.05
2023-02-06T00:16:24.700Z,80.86
2023-02-06T00:18:54.205Z,80.56
2023-02-06T00:21:24.937Z,79.82
2023-02-06T00:23:56.278Z,80.40
2023-02-06T00:26:25.757Z,80.40
2023-02-06T00:28:54.570Z,80.40
2023-02-06T00:31:22.939Z,80.52
2023-02-06T00:33:51.014Z,80.87
2023-02-06T00:36:18.077Z,81.06
2023-02-06T00:38:44.955Z,81.34
2023-02-06T00:41:12.976Z,81.60
2023-02-06T00:43:40.961Z,81.01
2023-02-06T00:46:08.801Z,81.86
2023-02-06T00:48:37.147Z,81.53
2023-02-06T00:51:08.236Z,81.94
2023-02-06T00:53:36.392Z,81.79
2023-02-06T00:56:03.374Z,81.87
2023-02-06T00:58:31.306Z,82.01
2023-02-06T01:00:58.185Z,81.63
2023-02-06T01:03:26.520Z,81.93
2023-02-06T01:05:54.518Z,81.01
2023-02-06T01:08:22.772Z,80.72
2023-02-06T01:10:52.696Z,80.39
2023-02-06T01:13:21.940Z,80.34
2023-02-06T01:15:51.273Z,80.24
2023-02-06T01:18:18.927Z,80.26
2023-02-06T01:20:47.063Z,80.09
2023-02-06T01:23:15.531Z,80.47
2023-02-06T01:25:44.832Z,80.80
2023-02-06T01:28:14.495Z,81.33
2023-02-06T01:30:41.678Z,81.26
2023-02-06T01:33:08.534Z,81.53
2023-02-06T01:35:37.106Z,81.57
2023-02-06T01:38:06.230Z,80.93
2023-02-06T01:40:34.444Z,81.47
2023-02-06T01:43:03.859Z,81.52
2023-02-06T01:45:42.087Z,81.58
2023-02-06T01:48:14.537Z,81.30
2023-02-06T01:50:46.526Z,80.98
2023-02-06T01:53:17.142Z,80.67
2023-02-06T01:55:47.579Z,79.96
2023-02-06T01:58:21.118Z,80.87
2023-02-06T02:00:51.829Z,81.32
2023-02-06T02:03:18.878Z,81.54
2023-02-06T02:05:50.642Z,82.10
2023-02-06T02:08:33.609Z,81.44
2023-02-06T02:11:03.430Z,83.29
2023-02-06T02:13:32.289Z,84.13
2023-02-06T02:16:13.224Z,84.35
2023-02-06T02:19:16.542Z,85.10
2023-02-06T02:22:05.035Z,85.92
2023-02-06T02:24:48.194Z,85.28
2023-02-06T02:27:31.695Z,85.03
2023-02-06T02:30:15.813Z,84.81
2023-02-06T02:32:58.168Z,84.19
2023-02-06T02:35:38.076Z,83.34
2023-02-06T02:38:24.206Z,84.16
2023-02-06T02:40:56.353Z,83.51
2023-02-06T02:43:54.208Z,83.61
2023-02-06T02:46:33.118Z,84.04
2023-02-06T02:49:09.933Z,85.36
2023-02-06T02:51:40.591Z,85.36
2023-02-06T02:54:10.479Z,85.47
2023-02-06T02:56:38.672Z,85.17
2023-02-06T02:59:11.441Z,85.17
2023-02-06T03:01:49.778Z,85.22
2023-02-06T03:04:23.548Z,85.50
2023-02-06T03:07:14.125Z,85.57
2023-02-06T03:09:45.935Z,85.40
2023-02-06T03:12:22.109Z,85.05
2023-02-06T03:15:03.193Z,84.72
2023-02-06T03:17:46.920Z,84.63
2023-02-06T03:20:15.629Z,84.67
2023-02-06T03:22:47.333Z,85.54
2023-02-06T03:25:21.851Z,85.97
2023-02-06T03:27:52.811Z,86.18
2023-02-06T03:30:24.288Z,86.47
2023-02-06T03:32:56.577Z,86.10
2023-02-06T03:35:31.295Z,85.97
2023-02-06T03:37:59.058Z,85.80
2023-02-06T03:40:30.459Z,86.16
2023-02-06T03:43:01.304Z,86.44
2023-02-06T03:45:47.733Z,86.93
2023-02-06T03:48:22.917Z,86.54
2023-02-06T03:50:54.332Z,86.71
2023-02-06T03:53:25.030Z,86.83
2023-02-06T03:55:58.203Z,86.97
2023-02-06T03:58:25.728Z,87.11
2023-02-06T04:00:53.332Z,86.69
2023-02-06T04:03:24.219Z,86.63
2023-02-06T04:05:52.468Z,87.14
2023-02-06T04:08:22.258Z,86.95
2023-02-06T04:10:50.195Z,87.58
2023-02-06T04:13:18.612Z,87.56
2023-02-06T04:15:46.713Z,87.00
2023-02-06T04:18:14.768Z,87.67
2023-02-06T04:20:43.192Z,87.31
2023-02-06T04:23:10.324Z,87.24
2023-02-06T04:25:38.724Z,87.21
2023-02-06T04:28:07.264Z,87.62
2023-02-06T04:30:35.866Z,87.50
2023-02-06T04:33:05.708Z,87.09
2023-02-06T04:35:35.742Z,86.52
2023-02-06T04:38:02.903Z,85.94
2023-02-06T04:40:30.963Z,85.31
2023-02-06T04:42:58.324Z,85.51
2023-02-06T04:45:26.383Z,85.59
2023-02-06T04:47:55.047Z,86.08
2023-02-06T04:50:24.254Z,86.00
2023-02-06T04:52:55.425Z,86.10
2023-02-06T04:55:25.844Z,86.15
2023-02-06T04:57:55.396Z,86.42
2023-02-06T05:00:22.777Z,86.27
2023-02-06T05:02:50.212Z,86.89
2023-02-06T05:05:19.093Z,86.78
2023-02-06T05:07:47.224Z,86.69
2023-02-06T05:10:16.218Z,86.10
2023-02-06T05:12:45.439Z,86.27
2023-02-06T05:15:15.240Z,86.84
2023-02-06T05:17:42.154Z,86.97
2023-02-06T05:20:10.881Z,86.98
2023-02-06T05:22:38.219Z,87.17
2023-02-06T05:25:06.986Z,87.09
2023-02-06T05:27:34.974Z,86.92
2023-02-06T05:30:03.917Z,86.58
2023-02-06T05:32:31.386Z,86.36
2023-02-06T05:34:59.303Z,86.74
2023-02-06T05:37:28.004Z,86.88
2023-02-06T05:39:56.697Z,86.89
2023-02-06T05:42:27.141Z,87.02
2023-02-06T05:44:54.386Z,87.53
2023-02-06T05:47:26.075Z,87.56
2023-02-06T05:49:54.678Z,88.29
2023-02-06T05:52:25.628Z,88.38
2023-02-06T05:54:53.301Z,88.52
2023-02-06T05:57:22.423Z,88.92
2023-02-06T05:59:51.322Z,89.07
2023-02-06T06:02:22.932Z,89.41
2023-02-06T06:04:52.051Z,89.57
2023-02-06T06:07:22.397Z,89.43
2023-02-06T06:09:49.498Z,88.95
2023-02-06T06:12:17.790Z,89.25
2023-02-06T06:14:46.096Z,89.57
2023-02-06T06:17:15.114Z,89.46
2023-02-06T06:19:44.914Z,89.34
2023-02-06T06:22:15.379Z,90.16
2023-02-06T06:24:44.942Z,90.54
2023-02-06T06:27:15.306Z,91.00
2023-02-06T06:29:43.980Z,90.57
2023-02-06T06:32:12.650Z,90.48
2023-02-06T06:34:40.361Z,90.97
2023-02-06T06:37:09.819Z,91.12
2023-02-06T06:39:37.037Z,90.67
2023-02-06T06:42:05.613Z,90.94
2023-02-06T06:44:33.203Z,91.74
2023-02-06T06:47:00.050Z,91.49
2023-02-06T06:49:29.069Z,91.59
2023-02-06T06:51:59.373Z,92.03
2023-02-06T06:54:27.413Z,92.41
2023-02-06T06:56:55.573Z,92.11
2023-02-06T06:59:24.607Z,92.44
2023-02-06T07:01:53.440Z,91.78
2023-02-06T07:04:23.692Z,91.67
2023-02-06T07:06:52.177Z,91.80
2023-02-06T07:09:21.306Z,91.44
2023-02-06T07:11:49.402Z,91.98
2023-02-06T07:14:17.626Z,91.90
2023-02-06T07:16:45.809Z,92.18
2023-02-06T07:19:15.115Z,92.19
2023-02-06T07:21:42.375Z,92.27
2023-02-06T07:24:09.231Z,92.37
2023-02-06T07:26:36.900Z,92.04
2023-02-06T07:29:06.253Z,90.43
2023-02-06T07:31:35.170Z,89.32
2023-02-06T07:34:03.188Z,89.78
2023-02-06T07:36:31.026Z,89.59
2023-02-06T07:38:58.124Z,90.47
2023-02-06T07:41:25.781Z,91.06
2023-02-06T07:43:55.167Z,89.31
2023-02-06T07:46:23.752Z,87.78
2023-02-06T07:48:52.417Z,88.00
2023-02-06T07:51:21.420Z,86.58
2023-02-06T07:53:50.851Z,85.54
2023-02-06T07:56:24.180Z,85.78
2023-02-06T07:58:54.423Z,85.57
2023-02-06T08:01:25.714Z,86.08
2023-02-06T08:03:54.716Z,86.72
2023-02-06T08:06:24.610Z,86.24
2023-02-06T08:08:56.332Z,86.65
2023-02-06T08:11:26.853Z,84.88
2023-02-06T08:13:55.437Z,83.91
2023-02-06T08:16:25.887Z,83.30
2023-02-06T08:18:54.564Z,84.29
2023-02-06T08:21:26.069Z,84.14
2023-02-06T08:23:58.987Z,83.75
2023-02-06T08:26:30.703Z,82.48
2023-02-06T08:29:01.185Z,81.57
2023-02-06T08:31:32.654Z,82.21
2023-02-06T08:34:00.348Z,81.98
2023-02-06T08:36:32.049Z,79.97
2023-02-06T08:39:00.555Z,80.77
2023-02-06T08:41:29.931Z,79.53
2023-02-06T08:44:00.307Z,79.16
2023-02-06T08:46:31.088Z,78.96
2023-02-06T08:49:03.329Z,78.78
2023-02-06T08:51:32.745Z,79.00
2023-02-06T08:54:08.439Z,79.36
2023-02-06T08:56:38.860Z,79.22
2023-02-06T08:59:06.839Z,78.46
2023-02-06T09:01:37.396Z,79.59
2023-02-06T09:04:07.975Z,78.71
2023-02-06T09:06:37.820Z,79.29
2023-02-06T09:09:08.327Z,78.50
2023-02-06T09:11:39.048Z,77.97
2023-02-06T09:14:08.627Z,78.20
2023-02-06T09:16:38.018Z,77.49
2023-02-06T09:19:07.748Z,76.02
2023-02-06T09:21:36.740Z,77.03
2023-02-06T09:24:07.239Z,77.55
2023-02-06T09:26:44.784Z,77.46
2023-02-06T09:29:17.175Z,77.32
2023-02-06T09:31:44.671Z,76.83
2023-02-06T09:34:13.850Z,77.39
2023-02-06T09:36:43.342Z,77.42
2023-02-06T09:39:10.969Z,76.71
2023-02-06T09:41:55.251Z,76.77
2023-02-06T09:44:32.555Z,76.98
2023-02-06T09:47:25.326Z,77.15
2023-02-06T09:49:59.568Z,78.47
2023-02-06T09:52:47.729Z,77.62
2023-02-06T09:55:29.725Z,77.53
2023-02-06T09:58:19.362Z,78.30
2023-02-06T10:00:56.198Z,78.58
2023-02-06T10:03:51.595Z,78.66
2023-02-06T10:06:20.738Z,79.13
2023-02-06T10:09:04.669Z,80.13
2023-02-06T10:11:45.817Z,77.59
2023-02-06T10:14:36.815Z,78.26
2023-02-06T10:17:16.175Z,78.26
2023-02-06T10:20:06.173Z,77.25
2023-02-06T10:22:41.721Z,77.40
2023-02-06T10:25:30.891Z,76.89
2023-02-06T10:28:02.385Z,78.11
2023-02-06T10:30:51.867Z,76.98
2023-02-06T10:33:34.778Z,76.05
2023-02-06T10:36:16.463Z,75.73
2023-02-06T10:39:21.137Z,75.59
2023-02-06T10:41:58.464Z,74.77
2023-02-06T10:44:50.828Z,74.28
2023-02-06T10:47:37.557Z,73.61
2023-02-06T10:50:17.948Z,72.98
2023-02-06T10:52:48.961Z,73.21
2023-02-06T10:55:33.500Z,73.25
2023-02-06T10:58:18.921Z,69.98
2023-02-06T11:00:48.965Z,69.29
2023-02-06T11:03:21.928Z,67.09
2023-02-06T11:05:53.609Z,67.87
2023-02-06T11:08:34.216Z,66.98
2023-02-06T11:11:22.147Z,68.25
2023-02-06T11:13:58.612Z,69.13
2023-02-06T11:16:28.398Z,68.29
2023-02-06T11:19:01.697Z,68.26
2023-02-06T11:21:46.790Z,69.29
2023-02-06T11:24:17.874Z,69.23
2023-02-06T11:26:50.350Z,70.13
2023-02-06T11:29:22.679Z,70.10
2023-02-06T11:31:57.117Z,69.97
2023-02-06T11:34:30.243Z,70.00
2023-02-06T11:37:00.842Z,68.56
2023-02-06T11:39:31.002Z,69.56
2023-02-06T11:41:59.542Z,68.73
2023-02-06T11:44:29.564Z,69.69
2023-02-06T11:46:57.214Z,68.88
2023-02-06T11:49:29.748Z,68.56
2023-02-06T11:52:01.533Z,69.33
2023-02-06T11:54:34.886Z,68.99
2023-02-06T11:57:09.788Z,68.57
2023-02-06T11:59:53.091Z,68.53
2023-02-06T12:02:35.881Z,68.86
2023-02-06T12:05:04.826Z,69.99
2023-02-06T12:07:38.993Z,68.31
2023-02-06T12:10:15.671Z,66.08
2023-02-06T12:12:50.197Z,67.50
2023-02-06T12:15:46.436Z,69.94
2023-02-06T12:18:23.542Z,67.32
2023-02-06T12:21:03.636Z,68.88
2023-02-06T12:23:39.005Z,66.19
2023-02-06T12:26:12.929Z,66.88
2023-02-06T12:28:51.052Z,67.46
2023-02-06T12:31:25.571Z,67.15
2023-02-06T12:34:00.660Z,66.61
2023-02-06T12:36:38.075Z,64.76
2023-02-06T12:39:20.089Z,66.03
2023-02-06T12:42:03.263Z,65.90
2023-02-06T12:44:39.880Z,65.34
2023-02-06T12:47:15.294Z,66.00
2023-02-06T12:49:55.074Z,64.65
2023-02-06T12:52:31.273Z,65.59
2023-02-06T12:55:18.918Z,66.29
2023-02-06T12:57:47.274Z,65.49
2023-02-06T13:00:46.302Z,66.23
2023-02-06T13:03:24.631Z,65.75
2023-02-06T13:06:18.937Z,65.45
2023-02-06T13:08:56.083Z,66.30
2023-02-06T13:11:41.116Z,65.43
2023-02-06T13:14:18.157Z,67.43
2023-02-06T13:16:51.415Z,66.31
2023-02-06T13:19:49.191Z,67.97
2023-02-06T13:22:19.687Z,67.61
2023-02-06T13:24:50.201Z,68.71
2023-02-06T13:27:41.425Z,68.68
2023-02-06T13:30:45.129Z,67.89
2023-02-06T13:33:22.993Z,68.03
2023-02-06T13:35:59.045Z,67.96
2023-02-06T13:38:38.994Z,68.08
2023-02-06T13:41:25.761Z,68.19
2023-02-06T13:43:57.997Z,68.08
2023-02-06T13:46:57.175Z,68.33
2023-02-06T13:49:54.792Z,69.55
2023-02-06T13:52:45.910Z,69.23
2023-02-06T13:55:25.890Z,69.78
2023-02-06T13:57:55.396Z,69.60
2023-02-06T14:00:31.570Z,68.06
2023-02-06T14:03:06.512Z,69.41
2023-02-06T14:05:43.097Z,70.03
2023-02-06T14:08:26.604Z,68.92
2023-02-06T14:10:55.071Z,69.27
2023-02-06T14:13:45.213Z,68.73
2023-02-06T14:16:25.743Z,68.08
2023-02-06T14:19:11.409Z,68.21
2023-02-06T14:21:42.198Z,69.05
2023-02-06T14:24:28.002Z,68.94
2023-02-06T14:27:24.265Z,68.66
2023-02-06T14:29:58.910Z,67.56
2023-02-06T14:32:57.125Z,66.63
2023-02-06T14:35:31.727Z,65.58
2023-02-06T14:38:06.133Z,66.63
2023-02-06T14:40:39.747Z,63.35
2023-02-06T14:43:12.691Z,63.57
2023-02-06T14:45:47.707Z,63.79
2023-02-06T14:48:31.858Z,62.93
2023-02-06T14:51:01.059Z,63.19
2023-02-06T14:53:31.269Z,62.62
2023-02-06T14:56:25.664Z,62.71
2023-02-06T14:58:54.690Z,62.43
2023-02-06T15:01:28.952Z,61.79
2023-02-06T15:04:16.007Z,60.62
2023-02-06T15:06:51.618Z,59.26
2023-02-06T15:09:30.814Z,58.52
2023-02-06T15:12:04.710Z,56.59
2023-02-06T15:14:34.388Z,56.45
2023-02-06T15:17:02.897Z,55.45
2023-02-06T15:19:33.478Z,54.94
2023-02-06T15:22:07.531Z,54.42
2023-02-06T15:24:46.055Z,55.79
2023-02-06T15:27:35.070Z,56.45
2023-02-06T15:30:27.818Z,57.76
2023-02-06T15:32:56.837Z,59.65
2023-02-06T15:35:37.374Z,62.06
2023-02-06T15:38:10.293Z,63.84
2023-02-06T15:40:42.309Z,65.27
2023-02-06T15:43:16.161Z,65.71
2023-02-06T15:45:46.508Z,66.12
2023-02-06T15:48:40.977Z,65.85
2023-02-06T15:51:26.180Z,66.99
2023-02-06T15:54:18.230Z,67.06
2023-02-06T15:56:51.706Z,67.58
2023-02-06T15:59:24.138Z,69.00
2023-02-06T16:01:55.673Z,68.89
2023-02-06T16:04:36.255Z,69.05
2023-02-06T16:07:24.822Z,69.90
2023-02-06T16:09:58.005Z,72.29
2023-02-06T16:12:26.918Z,72.92
2023-02-06T16:14:59.116Z,72.59
2023-02-06T16:17:36.020Z,72.59
2023-02-06T16:20:24.941Z,72.64
2023-02-06T16:22:58.845Z,73.71
2023-02-06T16:25:35.536Z,72.85
2023-02-06T16:28:14.791Z,72.53
2023-02-06T16:30:43.730Z,73.17
2023-02-06T16:33:26.380Z,73.82
2023-02-06T16:35:55.059Z,73.93
2023-02-06T16:38:23.067Z,74.20
2023-02-06T16:40:53.248Z,74.44
2023-02-06T16:43:22.077Z,74.57
2023-02-06T16:45:51.159Z,74.26
2023-02-06T16:48:20.217Z,74.13
2023-02-06T16:50:51.162Z,74.85
2023-02-06T16:53:25.673Z,73.94
2023-02-06T16:55:58.624Z,74.07
2023-02-06T16:58:30.660Z,73.65
2023-02-06T17:00:59.880Z,74.23
2023-02-06T17:03:28.650Z,74.10
2023-02-06T17:05:58.821Z,73.95
2023-02-06T17:08:26.797Z,74.68
2023-02-06T17:10:55.188Z,75.01
2023-02-06T17:13:24.852Z,75.25
2023-02-06T17:15:54.422Z,75.74
2023-02-06T17:18:24.719Z,75.81
2023-02-06T17:20:57.188Z,76.84
2023-02-06T17:23:26.246Z,76.87
2023-02-06T17:25:55.108Z,76.46
2023-02-06T17:28:24.204Z,76.46
2023-02-06T17:30:54.440Z,76.79
2023-02-06T17:33:23.326Z,76.60
2023-02-06T17:35:51.766Z,75.97
2023-02-06T17:38:21.291Z,75.89
2023-02-06T17:40:49.615Z,75.22
2023-02-06T17:43:20.601Z,75.19
2023-02-06T17:45:49.754Z,75.14
2023-02-06T17:48:18.063Z,74.61
2023-02-06T17:50:45.578Z,74.91
2023-02-06T17:53:15.596Z,74.97
2023-02-06T17:55:45.842Z,75.16
2023-02-06T17:58:13.953Z,74.89
2023-02-06T18:00:42.528Z,75.17
2023-02-06T18:03:12.505Z,75.33
2023-02-06T18:05:41.281Z,75.38
2023-02-06T18:08:09.519Z,75.82
2023-02-06T18:10:40.553Z,76.06
2023-02-06T18:13:09.131Z,76.03
2023-02-06T18:15:37.608Z,75.78
2023-02-06T18:18:06.988Z,76.08
2023-02-06T18:20:36.960Z,75.96
2023-02-06T18:23:05.669Z,76.14
2023-02-06T18:25:35.100Z,76.12
2023-02-06T18:28:03.967Z,76.40
2023-02-06T18:30:34.593Z,76.88
2023-02-06T18:33:03.328Z,77.33
2023-02-06T18:35:42.086Z,77.90
2023-02-06T18:38:12.318Z,78.02
2023-02-06T18:40:43.580Z,78.10
2023-02-06T18:43:14.622Z,78.42
2023-02-06T18:45:44.679Z,78.47
2023-02-06T18:48:14.934Z,78.47
2023-02-06T18:50:44.138Z,78.56
2023-02-06T18:53:12.917Z,78.69
2023-02-06T18:55:43.969Z,79.08
2023-02-06T18:58:11.693Z,78.91
2023-02-06T19:00:42.772Z,79.32
2023-02-06T19:03:11.564Z,79.62
2023-02-06T19:05:38.710Z,79.30
2023-02-06T19:08:06.401Z,79.41
2023-02-06T19:10:35.604Z,78.89
2023-02-06T19:13:04.818Z,78.10
2023-02-06T19:15:34.827Z,78.12
2023-02-06T19:18:05.053Z,78.22
2023-02-06T19:20:33.491Z,78.11
2023-02-06T19:23:01.585Z,78.08
2023-02-06T19:25:30.560Z,78.00
2023-02-06T19:27:58.803Z,78.49
2023-02-06T19:30:26.909Z,78.82
2023-02-06T19:32:54.523Z,77.86
2023-02-06T19:35:23.476Z,78.47
2023-02-06T19:37:52.090Z,79.08
2023-02-06T19:40:20.495Z,79.02
2023-02-06T19:42:48.906Z,78.74
2023-02-06T19:45:17.374Z,78.93
2023-02-06T19:47:45.001Z,79.46
2023-02-06T19:50:14.330Z,79.12
2023-02-06T19:52:41.967Z,78.46
2023-02-06T19:55:10.403Z,78.97
2023-02-06T19:57:39.706Z,79.00
2023-02-06T20:00:09.283Z,78.27
2023-02-06T20:02:36.749Z,77.66
2023-02-06T20:05:05.055Z,77.20
2023-02-06T20:07:33.566Z,76.71
2023-02-06T20:10:01.922Z,76.34
2023-02-06T20:12:30.586Z,76.19
2023-02-06T20:15:00.693Z,76.33
2023-02-06T20:17:29.161Z,75.89
2023-02-06T20:19:59.894Z,76.20
2023-02-06T20:22:28.164Z,76.20
2023-02-06T20:24:56.173Z,76.24
2023-02-06T20:27:24.970Z,76.20
2023-02-06T20:29:51.952Z,76.43
2023-02-06T20:32:19.965Z,76.24
2023-02-06T20:34:47.766Z,76.60
2023-02-06T20:37:17.753Z,76.74
2023-02-06T20:39:46.577Z,77.08
2023-02-06T20:42:14.340Z,77.11
2023-02-06T20:44:41.353Z,77.63
2023-02-06T20:47:10.570Z,77.78
2023-02-06T20:49:37.938Z,77.81
2023-02-06T20:52:06.680Z,77.18
2023-02-06T20:54:35.043Z,77.20
2023-02-06T20:57:06.200Z,77.95
2023-02-06T20:59:35.737Z,78.38
2023-02-06T21:02:05.058Z,77.83
2023-02-06T21:04:35.901Z,78.21
2023-02-06T21:07:04.317Z,77.73
2023-02-06T21:09:31.845Z,77.87
2023-02-06T21:11:59.538Z,78.19
2023-02-06T21:14:30.600Z,77.94
2023-02-06T21:16:59.309Z,78.13
2023-02-06T21:19:29.763Z,78.57
2023-02-06T21:21:58.242Z,78.96
2023-02-06T21:24:27.060Z,78.70
2023-02-06T21:26:56.265Z,78.71
2023-02-06T21:29:25.308Z,78.43
2023-02-06T21:32:07.159Z,78.88
2023-02-06T21:34:40.546Z,78.72
2023-02-06T21:37:08.852Z,79.04
2023-02-06T21:39:39.449Z,78.66
2023-02-06T21:42:10.615Z,78.83
2023-02-06T21:44:39.120Z,79.07
2023-02-06T21:47:10.784Z,79.38
2023-02-06T21:49:39.778Z,78.97
2023-02-06T21:52:08.599Z,79.15
2023-02-06T21:54:36.944Z,78.71
2023-02-06T21:57:05.756Z,79.10
2023-02-06T21:59:34.872Z,79.20
2023-02-06T22:02:04.831Z,78.99
2023-02-06T22:04:34.512Z,79.08
2023-02-06T22:07:03.203Z,78.69
2023-02-06T22:09:31.797Z,78.82
2023-02-06T22:12:00.877Z,78.59
2023-02-06T22:14:29.876Z,78.52
2023-02-06T22:16:58.395Z,78.89
2023-02-06T22:19:28.878Z,78.96
2023-02-06T22:21:56.822Z,78.67
2023-02-06T22:24:26.104Z,78.96
2023-02-06T22:26:54.080Z,78.62
2023-02-06T22:29:23.310Z,78.93
2023-02-06T22:31:53.010Z,79.00
2023-02-06T22:34:22.573Z,79.14
2023-02-06T22:36:51.577Z,79.09
2023-02-06T22:39:19.762Z,79.12
2023-02-06T22:41:48.652Z,78.87
2023-02-06T22:44:21.516Z,78.72
2023-02-06T22:46:54.357Z,79.14
2023-02-06T22:49:25.105Z,78.66
2023-02-06T22:51:54.649Z,78.80
2023-02-06T22:54:23.959Z,78.44
2023-02-06T22:56:52.441Z,78.09
2023-02-06T22:59:24.244Z,78.57
2023-02-06T23:01:58.135Z,79.08
2023-02-06T23:04:28.648Z,78.73
2023-02-06T23:06:57.314Z,79.07
2023-02-06T23:09:28.201Z,79.36
2023-02-06T23:11:58.464Z,79.34
2023-02-06T23:14:27.243Z,78.96
2023-02-06T23:16:55.984Z,79.31
2023-02-06T23:19:24.296Z,78.96
2023-02-06T23:21:53.580Z,78.94
2023-02-06T23:24:21.889Z,78.86
2023-02-06T23:26:51.095Z,79.00
2023-02-06T23:29:21.637Z,79.34
2023-02-06T23:31:51.928Z,79.83
2023-02-06T23:34:19.899Z,79.77
2023-02-06T23:36:48.604Z,78.90
2023-02-06T23:39:15.582Z,79.19
2023-02-06T23:41:45.378Z,78.94
2023-02-06T23:44:13.988Z,79.04
2023-02-06T23:46:42.091Z,79.46
2023-02-06T23:49:11.697Z,79.99
2023-02-06T23:51:40.682Z,80.22
2023-02-06T23:54:10.190Z,79.93
2023-02-06T23:56:39.839Z,79.39
2023-02-06T23:59:07.778Z,79.18
